Time;durP1;ratioP1;P1;durP2;ratioP2;P2;SDS_P1;SDS_P2;PMS_P1;PMS_P2;Temp;Humidity;BMP_temperature;BMP_pressure;BME280_temperature;BME280_humidity;BME280_pressure;Samples;Min_cycle;Max_cycle;Signal;HPM_P1;HPM_P2
2022/09/14 00:00:53;;;;;;;6.00;2.17;;;15.70;99.90;;;;;;5048322;28;20215;-68
2022/09/14 00:03:20;;;;;;;2.43;1.50;;;15.70;99.90;;;;;;5047286;28;20303;-67
2022/09/14 00:05:48;;;;;;;2.73;1.40;;;15.70;99.90;;;;;;5032423;28;20240;-68
2022/09/14 00:08:16;;;;;;;4.20;1.40;;;15.60;99.90;;;;;;5028486;28;20240;-68
2022/09/14 00:10:44;;;;;;;5.83;1.70;;;15.60;99.90;;;;;;5028537;28;20228;-67
2022/09/14 00:13:12;;;;;;;2.80;1.67;;;15.60;99.90;;;;;;5028263;28;20859;-68
2022/09/14 00:15:42;;;;;;;3.10;1.63;;;15.60;99.90;;;;;;5043252;28;20695;-68
2022/09/14 00:18:11;;;;;;;2.97;1.30;;;15.60;99.90;;;;;;5048685;28;20247;-68
2022/09/14 00:20:38;;;;;;;4.07;1.40;;;15.60;99.90;;;;;;5048355;28;20626;-68
2022/09/14 00:23:06;;;;;;;5.50;1.50;;;15.60;99.90;;;;;;5047700;28;20322;-68
2022/09/14 00:25:33;;;;;;;3.53;1.63;;;15.60;99.90;;;;;;5031949;28;20319;-68
2022/09/14 00:28:00;;;;;;;4.67;1.50;;;15.60;99.90;;;;;;5043164;28;20287;-68
2022/09/14 00:30:27;;;;;;;3.17;1.43;;;15.50;99.90;;;;;;5047594;28;20884;-69
2022/09/14 00:32:54;;;;;;;4.63;1.67;;;15.50;99.90;;;;;;5046976;28;20291;-69
2022/09/14 00:35:21;;;;;;;1.53;1.10;;;15.50;99.90;;;;;;5048421;28;20208;-69
2022/09/14 00:37:49;;;;;;;4.20;1.60;;;15.50;99.90;;;;;;5061301;28;20267;-68
2022/09/14 00:40:18;;;;;;;7.27;2.03;;;15.50;99.90;;;;;;5029453;28;20423;-68
2022/09/14 00:42:45;;;;;;;3.30;1.40;;;15.50;99.90;;;;;;5028411;28;20244;-68
2022/09/14 00:45:24;;;;;;;3.37;1.67;;;15.40;99.90;;;;;;5027625;28;20204;-69
2022/09/14 00:47:54;;;;;;;4.43;1.37;;;15.40;99.90;;;;;;5027732;28;20255;-69
2022/09/14 00:50:21;;;;;;;4.23;1.67;;;15.30;99.90;;;;;;5027725;28;20239;-69
2022/09/14 00:52:50;;;;;;;3.97;1.63;;;15.30;99.90;;;;;;5042417;28;20204;-69
2022/09/14 00:55:22;;;;;;;4.00;2.00;;;15.30;99.90;;;;;;5054899;28;20291;-69
2022/09/14 00:57:52;;;;;;;4.13;1.93;;;15.30;99.90;;;;;;5047754;28;20198;-70
2022/09/14 01:00:29;;;;;;;4.57;1.60;;;15.30;99.90;;;;;;5047753;28;20287;-70
2022/09/14 01:02:56;;;;;;;2.23;1.33;;;15.30;99.90;;;;;;5047406;28;20223;-69
2022/09/14 01:05:31;;;;;;;4.43;1.43;;;15.30;99.90;;;;;;5027561;28;20205;-69
2022/09/14 01:08:18;;;;;;;3.33;1.57;;;15.30;99.90;;;;;;5027870;28;20203;-69
2022/09/14 01:11:14;;;;;;;6.20;2.00;;;15.10;99.90;;;;;;5027715;28;20275;-69
2022/09/14 01:13:51;;;;;;;4.70;1.67;;;15.00;99.90;;;;;;5029232;28;20208;-68
2022/09/14 01:16:27;;;;;;;7.27;1.70;;;14.90;99.90;;;;;;5046934;28;20658;-68
2022/09/14 01:18:58;;;;;;;5.93;1.80;;;14.90;99.90;;;;;;5047242;28;20754;-69
2022/09/14 01:21:29;;;;;;;5.00;1.67;;;14.80;99.90;;;;;;5045520;28;20600;-68
2022/09/14 01:24:02;;;;;;;3.73;1.73;;;14.90;99.90;;;;;;5043200;28;20243;-68
2022/09/14 01:26:54;;;;;;;7.57;1.83;;;14.80;99.90;;;;;;5067266;28;20259;-68
2022/09/14 01:29:27;;;;;;;5.17;2.17;;;14.80;99.90;;;;;;5053832;28;20278;-68
2022/09/14 01:31:59;;;;;;;2.77;1.73;;;14.80;99.90;;;;;;5064935;28;20310;-68
2022/09/14 01:34:31;;;;;;;3.53;1.53;;;14.80;99.90;;;;;;5057016;28;20510;-68
2022/09/14 01:37:04;;;;;;;3.80;1.83;;;14.80;99.90;;;;;;5047230;28;20243;-68
2022/09/14 01:39:33;;;;;;;3.30;1.47;;;14.80;99.90;;;;;;5035046;28;20873;-68
2022/09/14 01:42:01;;;;;;;2.40;1.30;;;14.70;99.90;;;;;;5041019;28;20291;-68
2022/09/14 01:44:33;;;;;;;2.73;1.37;;;14.70;99.90;;;;;;5026879;28;20219;-68
2022/09/14 01:47:06;;;;;;;4.63;1.80;;;14.80;99.90;;;;;;5039434;28;20716;-68
2022/09/14 01:49:38;;;;;;;3.83;1.53;;;14.90;99.90;;;;;;5046823;28;20291;-68
2022/09/14 01:52:11;;;;;;;4.33;1.53;;;14.80;99.90;;;;;;5040696;28;20773;-68
2022/09/14 01:54:42;;;;;;;7.63;2.00;;;14.80;99.90;;;;;;5046977;28;20237;-68
2022/09/14 01:57:14;;;;;;;6.80;2.27;;;14.70;99.90;;;;;;5055471;28;20295;-68
2022/09/14 01:59:44;;;;;;;7.00;2.17;;;14.50;99.90;;;;;;5047046;28;20197;-68
2022/09/14 02:02:16;;;;;;;3.40;1.63;;;14.50;99.90;;;;;;5040323;28;20276;-68
2022/09/14 02:04:47;;;;;;;3.53;1.50;;;14.50;99.90;;;;;;5027086;28;20312;-68
2022/09/14 02:07:15;;;;;;;7.13;2.13;;;14.40;99.90;;;;;;5026835;28;20292;-67
2022/09/14 02:09:43;;;;;;;3.77;1.87;;;14.40;99.90;;;;;;5033665;28;20339;-70
2022/09/14 02:12:10;;;;;;;7.10;2.07;;;14.40;99.90;;;;;;5040783;28;20225;-69
2022/09/14 02:14:37;;;;;;;2.73;1.63;;;14.40;99.90;;;;;;5027278;28;20296;-69
2022/09/14 02:17:07;;;;;;;7.50;1.97;;;14.50;99.90;;;;;;5026853;28;20215;-68
2022/09/14 02:19:41;;;;;;;3.83;1.77;;;14.40;99.90;;;;;;5033969;28;20236;-68
2022/09/14 02:22:08;;;;;;;5.67;1.83;;;14.50;99.90;;;;;;5046518;28;20192;-68
2022/09/14 02:24:36;;;;;;;5.50;1.87;;;14.60;99.90;;;;;;5056204;28;20322;-67
2022/09/14 02:27:04;;;;;;;4.00;1.93;;;14.50;99.90;;;;;;5068073;28;20719;-68
2022/09/14 02:29:31;;;;;;;3.33;1.90;;;14.60;99.90;;;;;;5049607;28;20211;-67
2022/09/14 02:32:13;;;;;;;4.10;1.63;;;14.50;99.90;;;;;;5028358;28;20237;-67
2022/09/14 02:34:49;;;;;;;3.57;1.63;;;14.40;99.90;;;;;;5028694;28;20282;-67
2022/09/14 02:37:20;;;;;;;7.87;2.13;;;14.60;99.90;;;;;;5027910;28;20311;-67
2022/09/14 02:39:56;;;;;;;4.10;1.60;;;14.60;99.90;;;;;;5042324;28;20232;-67
2022/09/14 02:42:33;;;;;;;5.33;1.60;;;14.60;99.90;;;;;;5038484;28;20275;-67
2022/09/14 02:45:11;;;;;;;2.80;1.77;;;14.60;99.90;;;;;;5028525;28;20200;-67
2022/09/14 02:47:48;;;;;;;2.13;1.43;;;14.50;99.90;;;;;;5035163;28;20196;-67
2022/09/14 02:50:24;;;;;;;4.90;1.70;;;14.50;99.90;;;;;;5048778;28;20382;-67
2022/09/14 02:52:58;;;;;;;5.40;1.77;;;14.60;99.90;;;;;;5047105;28;20931;-67
2022/09/14 02:55:30;;;;;;;6.00;1.67;;;14.60;99.90;;;;;;5048189;28;20746;-67
2022/09/14 02:58:06;;;;;;;8.90;2.07;;;14.50;99.90;;;;;;5048276;28;20196;-68
2022/09/14 03:00:36;;;;;;;8.10;2.07;;;14.40;99.90;;;;;;5047246;28;20247;-67
2022/09/14 03:03:06;;;;;;;3.63;1.70;;;14.50;99.90;;;;;;5033536;28;20288;-68
2022/09/14 03:05:33;;;;;;;5.80;1.87;;;14.50;99.90;;;;;;5027284;28;20240;-67
2022/09/14 03:08:01;;;;;;;4.27;1.70;;;14.50;99.90;;;;;;5032988;28;20654;-67
2022/09/14 03:10:28;;;;;;;4.20;1.57;;;14.60;99.90;;;;;;5049606;28;20218;-67
2022/09/14 03:12:55;;;;;;;2.73;1.40;;;14.60;99.90;;;;;;5048322;28;20207;-68
2022/09/14 03:15:22;;;;;;;7.00;2.00;;;14.60;99.90;;;;;;5047879;28;20742;-67
2022/09/14 03:17:50;;;;;;;7.43;1.87;;;14.60;99.90;;;;;;5048168;28;20214;-68
2022/09/14 03:20:21;;;;;;;4.07;2.00;;;14.50;99.90;;;;;;5048040;28;20753;-67
2022/09/14 03:22:48;;;;;;;2.67;1.70;;;14.40;99.90;;;;;;5048093;28;20255;-67
2022/09/14 03:25:17;;;;;;;8.40;2.00;;;14.30;99.90;;;;;;5047564;28;20298;-67
2022/09/14 03:27:49;;;;;;;5.10;1.90;;;14.20;99.90;;;;;;5048448;28;20312;-67
2022/09/14 03:30:16;;;;;;;7.33;2.10;;;14.10;99.90;;;;;;5049095;28;20201;-67
2022/09/14 03:32:42;;;;;;;6.83;1.63;;;14.00;99.90;;;;;;5049399;28;20327;-67
2022/09/14 03:35:10;;;;;;;6.57;1.83;;;13.90;99.90;;;;;;5048953;28;20214;-67
2022/09/14 03:37:40;;;;;;;5.23;2.10;;;13.90;99.90;;;;;;5048620;28;20662;-68
2022/09/14 03:40:08;;;;;;;3.83;2.17;;;13.90;99.90;;;;;;5048670;28;20196;-67
2022/09/14 03:42:35;;;;;;;4.90;2.00;;;13.90;99.90;;;;;;5048837;28;20211;-67
2022/09/14 03:45:02;;;;;;;5.73;2.00;;;13.80;99.90;;;;;;5048636;28;20201;-67
2022/09/14 03:47:30;;;;;;;4.80;2.00;;;13.80;99.90;;;;;;5048495;28;20208;-67
2022/09/14 03:49:56;;;;;;;3.80;2.07;;;13.80;99.90;;;;;;5048890;28;20204;-68
2022/09/14 03:52:23;;;;;;;6.13;2.00;;;13.80;99.90;;;;;;5048719;28;20248;-67
2022/09/14 03:54:51;;;;;;;3.90;2.10;;;13.90;99.90;;;;;;5048854;28;20211;-67
2022/09/14 03:57:18;;;;;;;5.30;2.20;;;13.80;99.90;;;;;;5048851;28;20234;-67
2022/09/14 03:59:45;;;;;;;4.23;2.27;;;13.90;99.90;;;;;;5048612;28;20742;-67
2022/09/14 04:02:11;;;;;;;4.80;2.23;;;13.90;99.90;;;;;;5048254;28;20682;-68
2022/09/14 04:04:38;;;;;;;4.73;2.37;;;13.80;99.90;;;;;;5048301;28;20209;-67
2022/09/14 04:07:05;;;;;;;9.00;2.87;;;13.80;99.90;;;;;;5048806;28;20204;-67
2022/09/14 04:09:32;;;;;;;2.80;2.00;;;13.70;99.90;;;;;;5048585;28;20212;-68
2022/09/14 04:12:01;;;;;;;6.23;2.90;;;13.70;99.90;;;;;;5048318;28;20726;-67
2022/09/14 04:14:28;;;;;;;6.33;2.40;;;13.60;99.90;;;;;;5048309;28;20208;-67
2022/09/14 04:16:54;;;;;;;5.33;2.30;;;13.50;99.90;;;;;;5048064;28;20208;-67
2022/09/14 04:19:21;;;;;;;4.77;2.20;;;13.50;99.90;;;;;;5048202;28;20671;-67
2022/09/14 04:21:48;;;;;;;5.13;2.20;;;13.50;99.90;;;;;;5061078;28;20204;-68
2022/09/14 04:24:14;;;;;;;8.33;2.50;;;13.50;99.90;;;;;;5055945;28;20238;-67
2022/09/14 04:26:41;;;;;;;4.97;2.17;;;13.60;99.90;;;;;;5068168;28;20239;-67
2022/09/14 04:29:11;;;;;;;5.00;2.30;;;13.50;99.90;;;;;;5068225;28;20277;-68
2022/09/14 04:31:38;;;;;;;4.40;2.23;;;13.50;99.90;;;;;;5067603;28;20270;-68
2022/09/14 04:34:05;;;;;;;3.03;2.03;;;13.50;99.90;;;;;;5067788;28;20681;-67
2022/09/14 04:36:32;;;;;;;5.73;2.07;;;13.60;99.90;;;;;;5067906;28;20246;-67
2022/09/14 04:39:02;;;;;;;5.83;2.30;;;13.70;99.90;;;;;;5060130;28;20666;-67
2022/09/14 04:41:30;;;;;;;9.07;2.17;;;13.80;99.90;;;;;;5048008;28;20215;-68
2022/09/14 04:43:57;;;;;;;6.87;2.23;;;13.90;99.90;;;;;;5047611;28;20647;-67
2022/09/14 04:46:28;;;;;;;4.07;2.03;;;13.90;99.90;;;;;;5047241;28;20706;-67
2022/09/14 04:48:54;;;;;;;6.73;2.30;;;13.90;99.90;;;;;;5047556;28;20200;-68
2022/09/14 04:51:23;;;;;;;3.00;1.83;;;14.00;99.90;;;;;;5047482;28;20232;-69
2022/09/14 04:53:52;;;;;;;5.27;2.20;;;14.00;99.90;;;;;;5048113;28;20226;-68
2022/09/14 04:56:21;;;;;;;3.97;2.00;;;14.10;99.90;;;;;;5047615;28;20216;-69
2022/09/14 04:58:52;;;;;;;5.90;2.30;;;14.10;99.90;;;;;;5047839;28;20238;-68
2022/09/14 05:01:20;;;;;;;2.77;2.40;;;14.10;99.90;;;;;;5047215;28;20201;-68
2022/09/14 05:03:49;;;;;;;4.77;2.50;;;14.10;99.90;;;;;;5047301;28;20208;-68
2022/09/14 05:06:17;;;;;;;5.00;2.60;;;14.10;99.90;;;;;;5047457;28;20208;-67
2022/09/14 05:08:45;;;;;;;4.43;2.10;;;14.20;99.90;;;;;;5036289;28;20216;-67
2022/09/14 05:11:14;;;;;;;4.00;2.27;;;14.20;99.90;;;;;;5026923;28;20212;-68
2022/09/14 05:13:41;;;;;;;2.53;2.00;;;14.20;99.90;;;;;;5027220;28;20679;-67
2022/09/14 05:16:08;;;;;;;3.43;2.17;;;14.20;99.90;;;;;;5027443;28;20260;-67
2022/09/14 05:18:35;;;;;;;5.67;2.40;;;14.30;99.90;;;;;;5060896;28;20219;-67
2022/09/14 05:21:09;;;;;;;3.07;2.00;;;14.30;99.90;;;;;;5047485;28;20240;-67
2022/09/14 05:23:36;;;;;;;4.20;2.50;;;14.30;99.90;;;;;;5048062;28;20240;-67
2022/09/14 05:26:06;;;;;;;6.17;2.17;;;14.30;99.90;;;;;;5067469;28;20212;-68
2022/09/14 05:28:34;;;;;;;5.40;2.53;;;14.30;99.90;;;;;;5067138;28;20199;-68
2022/09/14 05:31:07;;;;;;;5.47;2.50;;;14.30;99.90;;;;;;5066976;28;20238;-68
2022/09/14 05:33:34;;;;;;;3.67;2.20;;;14.30;99.90;;;;;;5067164;28;20191;-67
2022/09/14 05:36:04;;;;;;;6.57;2.50;;;14.10;99.90;;;;;;5067085;28;20224;-68
2022/09/14 05:38:33;;;;;;;5.50;2.30;;;14.10;99.90;;;;;;5063282;28;20283;-68
2022/09/14 05:41:00;;;;;;;4.37;2.30;;;14.10;99.90;;;;;;5046904;28;20215;-68
2022/09/14 05:43:28;;;;;;;4.53;2.30;;;14.10;99.90;;;;;;5046948;28;20211;-67
2022/09/14 05:45:55;;;;;;;4.13;2.33;;;14.10;99.90;;;;;;5046931;28;20211;-67
2022/09/14 05:48:22;;;;;;;4.13;2.17;;;14.20;99.90;;;;;;5047081;28;20204;-68
2022/09/14 05:50:49;;;;;;;4.67;2.60;;;14.20;99.90;;;;;;5047115;28;20211;-68
2022/09/14 05:53:15;;;;;;;3.17;2.40;;;14.30;99.90;;;;;;5046735;28;20224;-68
2022/09/14 05:55:43;;;;;;;4.77;2.23;;;14.20;99.90;;;;;;5066044;28;20211;-68
2022/09/14 05:58:12;;;;;;;6.67;2.60;;;14.10;99.90;;;;;;5066494;28;20710;-68
2022/09/14 06:00:39;;;;;;;6.07;2.37;;;14.10;99.90;;;;;;5067708;28;20529;-68
2022/09/14 06:03:06;;;;;;;6.03;2.30;;;14.20;99.90;;;;;;5071185;28;20211;-68
2022/09/14 06:05:34;;;;;;;5.20;2.53;;;14.20;99.90;;;;;;5055386;28;20249;-68
2022/09/14 06:08:01;;;;;;;4.40;2.60;;;14.20;99.90;;;;;;5050829;28;20214;-68
2022/09/14 06:10:29;;;;;;;5.50;2.33;;;14.20;99.90;;;;;;5050532;28;20219;-68
2022/09/14 06:12:59;;;;;;;3.47;2.00;;;14.30;99.90;;;;;;5052542;28;20262;-68
2022/09/14 06:15:26;;;;;;;4.13;2.13;;;14.30;99.90;;;;;;5062858;28;20646;-68
2022/09/14 06:17:53;;;;;;;7.77;2.43;;;14.40;99.90;;;;;;5050846;28;20208;-68
2022/09/14 06:20:19;;;;;;;5.03;2.03;;;14.40;99.90;;;;;;5050770;28;20204;-68
2022/09/14 06:22:46;;;;;;;8.40;2.30;;;14.40;99.90;;;;;;5050288;28;20236;-68
2022/09/14 06:25:13;;;;;;;3.93;2.30;;;14.50;99.90;;;;;;5065531;28;20222;-68
2022/09/14 06:27:40;;;;;;;6.50;2.33;;;14.50;99.90;;;;;;5070336;28;20203;-68
2022/09/14 06:30:09;;;;;;;6.33;2.33;;;14.50;99.90;;;;;;5070674;28;20214;-67
2022/09/14 06:32:36;;;;;;;4.00;2.03;;;14.50;99.90;;;;;;5070361;28;20239;-67
2022/09/14 06:35:03;;;;;;;5.43;2.20;;;14.60;99.90;;;;;;5070383;28;20212;-67
2022/09/14 06:37:30;;;;;;;6.33;2.20;;;14.60;99.90;;;;;;5066096;28;20680;-67
2022/09/14 06:39:56;;;;;;;4.40;1.87;;;14.60;99.90;;;;;;5049911;28;20566;-68
2022/09/14 06:42:23;;;;;;;4.80;1.93;;;14.60;99.90;;;;;;5050453;28;20208;-67
2022/09/14 06:44:50;;;;;;;3.17;1.80;;;14.60;99.90;;;;;;5050427;28;20231;-69
2022/09/14 06:47:18;;;;;;;3.60;2.47;;;14.60;99.90;;;;;;5049631;28;20675;-68
2022/09/14 06:49:45;;;;;;;5.40;2.33;;;14.60;99.90;;;;;;5050111;28;20208;-68
2022/09/14 06:52:11;;;;;;;3.87;2.13;;;14.50;99.90;;;;;;5049801;28;20251;-68
2022/09/14 06:54:38;;;;;;;4.83;2.10;;;14.50;99.90;;;;;;5049495;28;20667;-68
2022/09/14 06:57:06;;;;;;;8.73;2.40;;;14.60;99.90;;;;;;5049983;28;20212;-68
2022/09/14 06:59:32;;;;;;;3.73;2.10;;;14.70;99.90;;;;;;5049830;28;20208;-68
2022/09/14 07:01:59;;;;;;;6.37;2.30;;;14.70;99.90;;;;;;5049500;28;20728;-68
2022/09/14 07:04:27;;;;;;;10.67;2.57;;;14.80;99.90;;;;;;5049574;28;20212;-68
2022/09/14 07:06:54;;;;;;;7.10;2.30;;;14.90;99.90;;;;;;5049595;28;20212;-68
2022/09/14 07:09:25;;;;;;;6.33;2.17;;;14.90;99.90;;;;;;5052398;28;20578;-68
2022/09/14 07:11:52;;;;;;;3.77;2.13;;;14.90;99.90;;;;;;5060331;28;20637;-68
2022/09/14 07:14:19;;;;;;;5.77;1.83;;;14.90;99.90;;;;;;5049353;28;20203;-68
2022/09/14 07:16:46;;;;;;;6.00;2.23;;;14.80;99.90;;;;;;5049537;28;20278;-68
2022/09/14 07:19:14;;;;;;;5.57;1.93;;;14.80;99.90;;;;;;5049622;28;20212;-68
2022/09/14 07:21:43;;;;;;;6.10;2.17;;;14.80;99.90;;;;;;5049643;28;20211;-68
2022/09/14 07:24:11;;;;;;;5.10;2.47;;;14.80;99.90;;;;;;5055082;28;20235;-68
2022/09/14 07:26:41;;;;;;;2.23;1.67;;;14.80;99.90;;;;;;5069443;28;20204;-68
2022/09/14 07:29:19;;;;;;;4.30;2.17;;;14.80;99.90;;;;;;5068871;28;20658;-68
2022/09/14 07:31:49;;;;;;;6.10;2.20;;;14.90;99.90;;;;;;5069032;28;20200;-68
2022/09/14 07:34:16;;;;;;;5.93;1.90;;;14.90;99.90;;;;;;5060672;28;20229;-68
2022/09/14 07:36:44;;;;;;;5.43;2.00;;;14.90;99.90;;;;;;5039489;28;20239;-68
2022/09/14 07:39:13;;;;;;;4.90;2.20;;;15.00;99.90;;;;;;5038066;28;20215;-68
2022/09/14 07:41:40;;;;;;;7.47;2.63;;;15.10;99.90;;;;;;5048772;28;20678;-68
2022/09/14 07:44:09;;;;;;;6.43;2.20;;;15.10;99.90;;;;;;5048823;28;20208;-68
2022/09/14 07:46:38;;;;;;;8.63;1.97;;;15.20;99.90;;;;;;5048768;28;20211;-68
2022/09/14 07:49:06;;;;;;;8.50;2.03;;;15.30;99.90;;;;;;5048995;28;20208;-68
2022/09/14 07:51:35;;;;;;;5.37;1.93;;;15.40;99.90;;;;;;5048443;28;20218;-67
2022/09/14 07:54:04;;;;;;;11.07;2.20;;;15.50;99.90;;;;;;5053612;28;20235;-68
2022/09/14 07:56:31;;;;;;;3.93;1.90;;;15.50;99.90;;;;;;5066201;28;20203;-68
2022/09/14 07:58:59;;;;;;;2.83;1.70;;;15.50;99.90;;;;;;5048728;28;20265;-68
2022/09/14 08:01:28;;;;;;;5.03;1.90;;;15.60;99.90;;;;;;5048555;28;20219;-67
2022/09/14 08:03:55;;;;;;;3.47;2.30;;;15.60;99.90;;;;;;5048761;28;20211;-68
2022/09/14 08:06:24;;;;;;;12.70;8.50;;;15.70;99.90;;;;;;5057642;28;20231;-67
2022/09/14 08:08:53;;;;;;;9.37;2.70;;;15.80;99.90;;;;;;5053142;28;20265;-67
2022/09/14 08:11:23;;;;;;;5.97;1.93;;;15.90;99.90;;;;;;5048420;28;20200;-67
2022/09/14 08:13:51;;;;;;;13.77;3.47;;;16.00;99.90;;;;;;5048403;28;20227;-67
2022/09/14 08:16:19;;;;;;;10.17;2.27;;;16.10;99.90;;;;;;5048187;28;20218;-67
2022/09/14 08:18:46;;;;;;;6.37;2.40;;;16.10;99.90;;;;;;5048333;28;20281;-67
2022/09/14 08:21:15;;;;;;;11.47;2.63;;;16.20;99.90;;;;;;5048276;28;20214;-67
2022/09/14 08:23:42;;;;;;;9.50;3.20;;;16.20;99.90;;;;;;5049392;28;20262;-67
2022/09/14 08:26:11;;;;;;;7.43;3.57;;;16.30;99.90;;;;;;5067507;28;20298;-67
2022/09/14 08:28:40;;;;;;;8.27;2.53;;;16.30;99.90;;;;;;5068034;28;20223;-67
2022/09/14 08:31:09;;;;;;;6.00;2.50;;;16.40;99.90;;;;;;5054296;28;20227;-67
2022/09/14 08:33:38;;;;;;;5.03;2.03;;;16.50;99.90;;;;;;5033638;28;20228;-67
2022/09/14 08:36:09;;;;;;;6.03;2.10;;;16.60;99.90;;;;;;5027956;28;20225;-67
2022/09/14 08:38:37;;;;;;;7.80;2.07;;;16.70;99.90;;;;;;5028064;28;20219;-67
2022/09/14 08:41:16;;;;;;;5.47;1.90;;;16.80;99.90;;;;;;5028182;28;20205;-67
2022/09/14 08:43:45;;;;;;;7.13;2.13;;;16.90;99.90;;;;;;5027741;28;20658;-67
2022/09/14 08:46:26;;;;;;;5.40;2.10;;;17.00;99.90;;;;;;5027453;28;20204;-67
2022/09/14 08:48:54;;;;;;;3.07;1.90;;;17.10;99.90;;;;;;5028257;28;20204;-67
2022/09/14 08:51:21;;;;;;;5.17;1.50;;;17.10;99.90;;;;;;5027358;28;20216;-68
2022/09/14 08:53:51;;;;;;;5.90;2.00;;;17.10;99.90;;;;;;5038550;28;20324;-68
2022/09/14 08:56:21;;;;;;;8.13;1.97;;;17.00;99.90;;;;;;5047473;28;20211;-68
2022/09/14 08:59:09;;;;;;;5.43;2.10;;;17.20;99.90;;;;;;5047907;28;20530;-68
2022/09/14 09:01:43;;;;;;;9.80;2.23;;;17.20;99.90;;;;;;5048145;28;20208;-68
2022/09/14 09:04:30;;;;;;;7.67;2.00;;;17.10;99.90;;;;;;5059719;28;20686;-68
2022/09/14 09:07:02;;;;;;;13.77;3.07;;;17.10;99.90;;;;;;5047136;28;20223;-68
2022/09/14 09:09:38;;;;;;;4.70;1.83;;;17.10;99.90;;;;;;5047624;28;20657;-68
2022/09/14 09:12:06;;;;;;;4.73;2.37;;;17.10;99.90;;;;;;5047626;28;20196;-68
2022/09/14 09:14:38;;;;;;;9.83;2.10;;;17.10;99.90;;;;;;5047374;28;20232;-68
2022/09/14 09:17:13;;;;;;;4.13;1.90;;;17.20;99.90;;;;;;5047525;28;20197;-68
2022/09/14 09:19:52;;;;;;;6.63;2.10;;;17.20;99.90;;;;;;5047387;28;20207;-68
2022/09/14 09:22:21;;;;;;;10.20;2.70;;;17.20;99.90;;;;;;5047615;28;20204;-68
2022/09/14 09:24:52;;;;;;;4.87;2.07;;;17.30;99.90;;;;;;5046694;28;20239;-68
2022/09/14 09:27:19;;;;;;;4.50;1.93;;;17.30;99.90;;;;;;5046983;28;20204;-68
2022/09/14 09:29:47;;;;;;;8.70;2.33;;;17.40;99.90;;;;;;5046840;28;20210;-68
2022/09/14 09:32:16;;;;;;;12.63;4.20;;;17.40;99.90;;;;;;5047125;28;20200;-68
2022/09/14 09:34:43;;;;;;;39.30;10.00;;;17.50;99.90;;;;;;5047495;28;20294;-68
2022/09/14 09:37:14;;;;;;;35.70;11.13;;;17.60;99.90;;;;;;5046840;28;20628;-68
2022/09/14 09:39:42;;;;;;;10.23;2.37;;;17.70;99.90;;;;;;5047027;28;20276;-68
2022/09/14 09:42:15;;;;;;;9.60;2.80;;;17.80;99.90;;;;;;5047301;28;20211;-68
2022/09/14 09:44:56;;;;;;;9.17;2.97;;;17.90;99.90;;;;;;5047082;28;20204;-68
2022/09/14 09:47:30;;;;;;;16.63;4.53;;;17.90;99.90;;;;;;5046427;28;20200;-68
2022/09/14 09:49:59;;;;;;;9.87;2.70;;;17.90;99.90;;;;;;5046772;28;20219;-68
2022/09/14 09:52:27;;;;;;;6.70;2.03;;;17.80;99.90;;;;;;5046493;28;20584;-68
2022/09/14 09:54:55;;;;;;;14.63;3.40;;;17.80;99.90;;;;;;5058828;28;20608;-67
2022/09/14 09:57:27;;;;;;;6.67;2.13;;;17.80;99.90;;;;;;5066931;28;20210;-68
2022/09/14 10:00:09;;;;;;;11.53;2.37;;;17.90;99.90;;;;;;5062482;28;20225;-68
2022/09/14 10:02:36;;;;;;;10.87;3.83;;;17.90;99.90;;;;;;5046998;28;20219;-68
2022/09/14 10:05:06;;;;;;;8.10;5.00;;;17.80;99.90;;;;;;5046812;28;20607;-68
2022/09/14 10:07:36;;;;;;;7.10;2.93;;;17.80;99.90;;;;;;5046812;28;20283;-68
2022/09/14 10:10:06;;;;;;;3.90;1.70;;;17.80;99.90;;;;;;5047170;28;20682;-68
2022/09/14 10:12:34;;;;;;;9.70;3.43;;;17.70;99.90;;;;;;5046642;28;20243;-68
2022/09/14 10:15:21;;;;;;;7.63;2.40;;;17.80;99.90;;;;;;5047008;28;20204;-68
2022/09/14 10:18:04;;;;;;;5.67;2.07;;;17.80;99.90;;;;;;5047087;28;20193;-68
2022/09/14 10:20:31;;;;;;;5.43;1.70;;;17.80;99.90;;;;;;5046545;28;20667;-68
2022/09/14 10:23:16;;;;;;;3.87;1.77;;;17.90;99.90;;;;;;5047010;28;20231;-68
2022/09/14 10:25:43;;;;;;;3.77;1.80;;;17.90;99.90;;;;;;5054649;28;20204;-68
2022/09/14 10:28:21;;;;;;;4.60;2.10;;;18.00;99.90;;;;;;5047092;28;20216;-68
2022/09/14 10:30:54;;;;;;;4.73;1.60;;;18.00;99.90;;;;;;5047143;28;20552;-68
2022/09/14 10:33:22;;;;;;;5.43;1.70;;;18.10;99.90;;;;;;5046751;28;20220;-68
2022/09/14 10:35:54;;;;;;;6.03;1.73;;;18.20;99.90;;;;;;5046794;28;20321;-68
2022/09/14 10:38:33;;;;;;;6.63;1.70;;;18.30;99.90;;;;;;5046256;28;20196;-68
2022/09/14 10:41:12;;;;;;;3.50;1.47;;;18.20;99.90;;;;;;5046742;28;20208;-68
2022/09/14 10:43:53;;;;;;;3.47;1.83;;;18.30;99.90;;;;;;5046525;28;20196;-68
2022/09/14 10:46:27;;;;;;;6.20;2.70;;;18.50;99.90;;;;;;5046083;28;20208;-68
2022/09/14 10:49:23;;;;;;;4.60;1.57;;;18.70;99.90;;;;;;5049166;28;20567;-68
2022/09/14 10:51:58;;;;;;;6.63;1.90;;;18.90;99.90;;;;;;5044947;28;20215;-68
2022/09/14 10:54:51;;;;;;;5.70;1.80;;;18.90;99.90;;;;;;5052914;28;20875;-68
2022/09/14 10:57:26;;;;;;;3.50;1.67;;;19.20;99.90;;;;;;5057114;28;20224;-68
2022/09/14 10:59:55;;;;;;;4.03;1.73;;;19.30;99.90;;;;;;5049822;28;20195;-68
2022/09/14 11:02:57;;;;;;;3.30;1.70;;;19.40;99.90;;;;;;5049586;28;20555;-68
2022/09/14 11:05:27;;;;;;;5.10;1.67;;;19.40;99.90;;;;;;5025496;28;20208;-68
2022/09/14 11:08:07;;;;;;;3.80;1.87;;;19.40;99.90;;;;;;5049593;28;20208;-68
2022/09/14 11:10:41;;;;;;;6.73;2.20;;;19.40;99.90;;;;;;5049415;28;20567;-68
2022/09/14 11:13:25;;;;;;;3.73;1.70;;;19.30;99.90;;;;;;5049722;28;20220;-69
2022/09/14 11:15:58;;;;;;;3.80;1.87;;;19.20;99.90;;;;;;5049004;28;20662;-68
2022/09/14 11:18:37;;;;;;;4.10;1.90;;;19.20;99.90;;;;;;5049211;28;20192;-68
2022/09/14 11:21:16;;;;;;;6.00;1.93;;;19.10;99.90;;;;;;5049536;28;20246;-68
2022/09/14 11:23:48;;;;;;;3.63;1.70;;;19.00;99.90;;;;;;5050974;28;20240;-68
2022/09/14 11:26:20;;;;;;;5.50;1.67;;;19.00;99.90;;;;;;5068829;28;20195;-68
2022/09/14 11:28:52;;;;;;;4.17;1.80;;;19.10;99.90;;;;;;5069022;28;20205;-68
2022/09/14 11:31:23;;;;;;;5.30;1.87;;;19.00;99.90;;;;;;5068632;28;20214;-68
2022/09/14 11:33:57;;;;;;;5.37;2.07;;;19.00;99.90;;;;;;5068739;28;20735;-68
2022/09/14 11:36:27;;;;;;;4.10;1.67;;;19.00;99.90;;;;;;5068868;28;20227;-68
2022/09/14 11:38:59;;;;;;;5.20;4.37;;;19.00;99.90;;;;;;5061990;28;20202;-68
2022/09/14 11:41:31;;;;;;;4.40;2.33;;;19.00;99.90;;;;;;5047477;28;20196;-68
2022/09/14 11:44:01;;;;;;;4.10;1.60;;;19.10;99.90;;;;;;5028991;28;20197;-68
2022/09/14 11:46:33;;;;;;;5.07;1.60;;;19.10;99.90;;;;;;5028687;28;20201;-68
2022/09/14 11:49:11;;;;;;;4.10;1.77;;;19.00;99.90;;;;;;5028778;28;20644;-68
2022/09/14 11:51:43;;;;;;;7.63;2.07;;;19.00;99.90;;;;;;5041527;28;20211;-68
2022/09/14 11:54:13;;;;;;;7.33;1.70;;;19.10;99.90;;;;;;5037013;28;20240;-68
2022/09/14 11:56:40;;;;;;;4.43;2.10;;;19.10;99.90;;;;;;5049115;28;20192;-69
2022/09/14 11:59:07;;;;;;;3.80;1.97;;;19.00;99.90;;;;;;5048577;28;20208;-68
2022/09/14 12:01:36;;;;;;;6.03;1.97;;;18.90;99.90;;;;;;5048577;28;20212;-68
2022/09/14 12:04:10;;;;;;;5.53;1.80;;;18.80;99.90;;;;;;5048689;28;20207;-68
2022/09/14 12:06:53;;;;;;;7.57;1.70;;;18.70;99.90;;;;;;5048670;28;20195;-68
2022/09/14 12:09:52;;;;;;;4.43;1.67;;;18.70;99.90;;;;;;5048617;28;20192;-69
2022/09/14 12:12:34;;;;;;;3.10;1.70;;;18.70;99.90;;;;;;5048743;28;20188;-69
2022/09/14 12:15:03;;;;;;;3.17;1.70;;;18.70;99.90;;;;;;5048123;28;20323;-69
2022/09/14 12:17:33;;;;;;;4.00;1.80;;;18.70;99.90;;;;;;5048080;28;20582;-69
2022/09/14 12:20:34;;;;;;;3.87;1.93;;;18.70;99.90;;;;;;5048508;28;20200;-69
2022/09/14 12:23:06;;;;;;;4.27;1.73;;;18.70;99.90;;;;;;5048114;28;20940;-69
2022/09/14 12:25:34;;;;;;;3.63;1.77;;;18.70;99.90;;;;;;5065826;28;20212;-69
2022/09/14 12:28:01;;;;;;;9.23;2.37;;;18.60;99.90;;;;;;5068560;28;20203;-68
2022/09/14 12:30:35;;;;;;;4.33;1.73;;;18.60;99.90;;;;;;5068102;28;20226;-69
2022/09/14 12:33:03;;;;;;;5.37;1.67;;;18.60;99.90;;;;;;5068293;28;20223;-69
2022/09/14 12:35:45;;;;;;;4.77;2.33;;;18.60;99.90;;;;;;5067845;28;20297;-69
2022/09/14 12:38:55;;;;;;;4.83;1.47;;;18.70;99.90;;;;;;5060834;28;20250;-69
2022/09/14 12:41:58;;;;;;;4.43;1.80;;;18.70;99.90;;;;;;5027354;28;20578;-69
2022/09/14 12:44:33;;;;;;;3.63;1.80;;;18.70;99.90;;;;;;5027249;28;20215;-69
2022/09/14 12:47:34;;;;;;;4.87;1.90;;;18.70;99.90;;;;;;5036656;28;20952;-69
2022/09/14 12:50:09;;;;;;;3.33;1.80;;;18.80;99.90;;;;;;5053233;28;20219;-69
2022/09/14 12:52:48;;;;;;;2.77;1.63;;;18.90;99.90;;;;;;5047874;28;20627;-68
2022/09/14 12:55:36;;;;;;;6.87;1.87;;;19.10;99.90;;;;;;5047236;28;20234;-68
2022/09/14 12:58:10;;;;;;;4.30;1.90;;;19.30;99.90;;;;;;5047465;28;20717;-68
2022/09/14 13:00:50;;;;;;;7.03;2.20;;;19.50;99.90;;;;;;5047450;28;20201;-68
2022/09/14 13:03:39;;;;;;;7.30;2.13;;;19.80;99.90;;;;;;5047570;28;20199;-68
2022/09/14 13:06:11;;;;;;;6.50;2.00;;;20.10;99.90;;;;;;5044974;28;20211;-68